Time;durP1;ratioP1;P1;durP2;ratioP2;P2;SDS_P1;SDS_P2;PMS_P1;PMS_P2;Temp;Humidity;BMP_temperature;BMP_pressure;BME280_temperature;BME280_humidity;BME280_pressure;Samples;Min_cycle;Max_cycle;Signal;HPM_P1;HPM_P2
2023/11/09 00:01:12;;;;;;;1.98;1.10;;;;;;;9.15;100.00;100214.22;5090218;28;20028;-33
2023/11/09 00:03:38;;;;;;;2.15;0.70;;;;;;;9.21;100.00;100224.06;5089760;28;20032;-34
2023/11/09 00:06:03;;;;;;;1.20;0.77;;;;;;;9.21;100.00;100219.47;5089836;28;20060;-34
2023/11/09 00:08:30;;;;;;;1.75;1.02;;;;;;;9.19;100.00;100208.13;5081079;28;20116;-33
2023/11/09 00:10:56;;;;;;;1.02;0.75;;;;;;;9.22;100.00;100210.34;5076162;28;20392;-34
2023/11/09 00:13:21;;;;;;;1.33;0.90;;;;;;;9.22;100.00;100212.19;5076408;28;20090;-34
2023/11/09 00:15:47;;;;;;;2.93;0.83;;;;;;;9.20;100.00;100203.53;5076964;28;20453;-34
2023/11/09 00:18:21;;;;;;;2.15;0.98;;;;;;;9.18;100.00;100202.97;5076301;28;20025;-34
2023/11/09 00:20:53;;;;;;;2.25;0.90;;;;;;;9.21;100.00;100202.47;5075985;28;20043;-34
2023/11/09 00:23:19;;;;;;;0.98;0.77;;;;;;;9.18;100.00;100197.56;5076784;28;20444;-33
2023/11/09 00:25:44;;;;;;;;;;;;;;;9.23;100.00;100192.28;5076640;28;20368;-34
2023/11/09 00:28:10;;;;;;;1.40;0.80;;;;;;;9.14;100.00;100182.91;5075914;28;19909;-34
2023/11/09 00:30:35;;;;;;;1.10;0.85;;;;;;;9.22;100.00;100194.16;5074599;28;20040;-34
2023/11/09 00:33:01;;;;;;;1.23;0.70;;;;;;;9.21;100.00;100184.41;5075465;28;20032;-34
2023/11/09 00:35:26;;;;;;;1.17;0.70;;;;;;;9.20;100.00;100171.16;5075504;28;20029;-34
2023/11/09 00:37:51;;;;;;;1.07;0.60;;;;;;;9.13;100.00;100173.19;5075680;28;20032;-34
2023/11/09 00:40:17;;;;;;;1.83;0.80;;;;;;;9.21;100.00;100172.78;5075436;28;20029;-34
2023/11/09 00:42:43;;;;;;;1.10;0.90;;;;;;;9.15;100.00;100152.19;5075875;28;20474;-34
2023/11/09 00:45:09;;;;;;;1.10;0.90;;;;;;;9.15;100.00;100161.09;5075451;28;20515;-34
2023/11/09 00:47:35;;;;;;;2.42;0.82;;;;;;;9.21;100.00;100164.69;5075061;28;20068;-34
2023/11/09 00:50:00;;;;;;;0.82;0.70;;;;;;;9.19;100.00;100156.84;5075990;28;20107;-34
2023/11/09 00:52:26;;;;;;;1.65;0.90;;;;;;;9.22;100.00;100156.38;5075348;28;20052;-34
2023/11/09 00:54:51;;;;;;;1.75;0.90;;;;;;;9.16;100.00;100146.53;5075545;28;20028;-34
2023/11/09 00:57:20;;;;;;;1.93;0.80;;;;;;;9.12;100.00;100128.38;5075885;28;20048;-34
2023/11/09 00:59:47;;;;;;;1.23;0.90;;;;;;;9.22;100.00;100142.91;5075786;28;20266;-34
2023/11/09 01:02:13;;;;;;;1.80;1.00;;;;;;;9.23;100.00;100141.03;5075829;28;20020;-34
2023/11/09 01:04:38;;;;;;;1.27;0.80;;;;;;;9.23;100.00;100132.94;5075166;28;20536;-34
2023/11/09 01:07:04;;;;;;;1.13;0.87;;;;;;;9.24;100.00;100134.56;5076006;28;20043;-34
2023/11/09 01:09:30;;;;;;;0.90;0.80;;;;;;;9.24;100.00;100131.88;5075624;28;20103;-33
2023/11/09 01:11:55;;;;;;;1.33;0.80;;;;;;;9.25;100.00;100130.78;5075347;28;20028;-34
2023/11/09 01:14:21;;;;;;;1.55;0.80;;;;;;;9.24;100.00;100124.59;5075059;28;20465;-34
2023/11/09 01:16:47;;;;;;;1.87;1.03;;;;;;;9.25;100.00;100126.22;5074715;28;20064;-34
2023/11/09 01:19:12;;;;;;;2.92;0.82;;;;;;;9.23;100.00;100125.66;5074267;28;20062;-34
2023/11/09 01:21:38;;;;;;;1.27;0.82;;;;;;;9.15;100.00;100111.72;5074510;28;20047;-34
2023/11/09 01:24:03;;;;;;;1.40;0.80;;;;;;;9.23;100.00;100125.66;5074826;28;20103;-34
2023/11/09 01:26:29;;;;;;;2.75;1.00;;;;;;;9.20;100.00;100117.22;5075289;28;20113;-34
2023/11/09 01:28:54;;;;;;;1.52;1.00;;;;;;;9.24;100.00;100115.69;5074653;28;20035;-34
2023/11/09 01:31:21;;;;;;;1.73;1.07;;;;;;;9.05;100.00;100085.34;5074932;28;20035;-34
2023/11/09 01:33:47;;;;;;;1.33;0.98;;;;;;;9.22;100.00;100110.53;5075278;28;20290;-34
2023/11/09 01:36:14;;;;;;;1.20;0.90;;;;;;;9.24;100.00;100110.28;5074297;28;20407;-34
2023/11/09 01:38:40;;;;;;;1.15;0.90;;;;;;;9.20;100.00;100101.03;5074182;28;20424;-34
2023/11/09 01:41:07;;;;;;;1.52;1.00;;;;;;;9.25;100.00;100099.25;5075023;28;20028;-34
2023/11/09 01:43:33;;;;;;;3.08;1.13;;;;;;;9.21;100.00;100092.69;5074364;28;20021;-34
2023/11/09 01:45:59;;;;;;;1.67;0.93;;;;;;;9.27;100.00;100099.00;5074527;28;20461;-34
2023/11/09 01:48:26;;;;;;;1.52;1.00;;;;;;;9.27;100.00;100088.19;5074265;28;20032;-34
2023/11/09 01:50:51;;;;;;;1.75;1.10;;;;;;;9.21;100.00;100072.97;5074272;28;20060;-34
2023/11/09 01:53:17;;;;;;;1.08;0.88;;;;;;;9.27;100.00;100085.50;5072995;28;20027;-34
2023/11/09 01:55:43;;;;;;;3.80;1.30;;;;;;;9.20;100.00;100069.47;5073812;28;20029;-34
2023/11/09 01:58:09;;;;;;;1.77;1.00;;;;;;;9.21;100.00;100072.97;5074418;28;20078;-34
2023/11/09 02:00:38;;;;;;;3.08;1.10;;;;;;;9.28;100.00;100084.47;5074071;28;20132;-34
2023/11/09 02:03:05;;;;;;;1.88;1.08;;;;;;;9.27;100.00;100082.81;5074022;28;20082;-34
2023/11/09 02:05:33;;;;;;;1.10;0.90;;;;;;;9.27;100.00;100077.41;5074260;28;20048;-34
2023/11/09 02:07:58;;;;;;;1.63;1.00;;;;;;;9.28;100.00;100074.50;5073910;28;20036;-34
2023/11/09 02:10:24;;;;;;;1.30;0.90;;;;;;;9.26;100.00;100064.97;5073966;28;20028;-34
2023/11/09 02:12:50;;;;;;;4.63;1.00;;;;;;;9.11;100.00;100038.53;5073602;28;20028;-34
2023/11/09 02:15:15;;;;;;;1.98;1.00;;;;;;;9.28;100.00;100068.28;5074691;28;20029;-34
2023/11/09 02:17:41;;;;;;;1.17;0.88;;;;;;;9.30;100.00;100063.44;5073499;28;20468;-34
2023/11/09 02:20:08;;;;;;;1.65;1.00;;;;;;;9.31;100.00;100066.97;5073471;28;20040;-34
2023/11/09 02:22:36;;;;;;;1.98;0.93;;;;;;;9.32;100.00;100060.50;5073683;28;20024;-34
2023/11/09 02:25:03;;;;;;;1.55;1.10;;;;;;;9.26;100.00;100048.78;5073816;28;20056;-34
2023/11/09 02:27:29;;;;;;;1.77;0.80;;;;;;;9.29;100.00;100059.94;5074222;28;20055;-34
2023/11/09 02:29:54;;;;;;;1.98;0.90;;;;;;;9.32;100.00;100052.41;5073919;28;20028;-34
2023/11/09 02:32:20;;;;;;;1.23;0.90;;;;;;;9.34;100.00;100044.91;5074215;28;20398;-34
2023/11/09 02:34:48;;;;;;;1.67;0.97;;;;;;;9.19;100.00;100023.88;5073329;28;20057;-34
2023/11/09 02:37:13;;;;;;;1.27;0.93;;;;;;;9.34;100.00;100045.72;5074305;28;20611;-34
2023/11/09 02:39:39;;;;;;;3.00;1.25;;;;;;;9.37;100.00;100049.78;5073770;28;20021;-34
2023/11/09 02:42:05;;;;;;;1.20;0.83;;;;;;;9.37;100.00;100045.25;5074103;28;20369;-34
2023/11/09 02:44:30;;;;;;;1.83;1.00;;;;;;;9.37;100.00;100042.53;5073504;28;20071;-34
2023/11/09 02:46:56;;;;;;;1.57;1.00;;;;;;;9.39;100.00;100039.59;5073499;28;20102;-34
2023/11/09 02:49:21;;;;;;;2.50;1.00;;;;;;;9.38;100.00;100046.88;5073521;28;20024;-34
2023/11/09 02:51:47;;;;;;;1.42;1.10;;;;;;;9.39;100.00;100042.28;5073161;28;20031;-34
2023/11/09 02:54:13;;;;;;;2.00;1.05;;;;;;;9.30;100.00;100028.38;5073697;28;20060;-34
2023/11/09 02:56:38;;;;;;;2.28;1.05;;;;;;;9.41;100.00;100040.16;5073466;28;20376;-34
2023/11/09 02:59:04;;;;;;;2.57;1.20;;;;;;;9.41;100.00;100040.97;5073711;28;20029;-34
2023/11/09 03:01:30;;;;;;;;;;;;;;;9.46;100.00;100026.75;5073780;28;20285;-34
2023/11/09 03:03:56;;;;;;;2.58;1.00;;;;;;;9.45;100.00;100036.72;5073298;28;20007;-34
2023/11/09 03:06:21;;;;;;;2.63;1.45;;;;;;;9.43;100.00;100025.38;5073583;28;20056;-34
2023/11/09 03:08:47;;;;;;;1.88;1.15;;;;;;;9.47;100.00;100023.03;5073296;28;20528;-34
2023/11/09 03:11:17;;;;;;;1.92;1.30;;;;;;;9.43;100.00;100011.88;5073271;28;20032;-34
2023/11/09 03:13:44;;;;;;;2.17;1.30;;;;;;;9.46;100.00;100014.06;5073175;28;20050;-34
2023/11/09 03:16:09;;;;;;;1.88;1.38;;;;;;;9.47;100.00;100012.22;5073408;28;20032;-34
2023/11/09 03:18:35;;;;;;;1.50;1.38;;;;;;;9.48;100.00;100014.66;5073686;28;20479;-34
2023/11/09 03:21:00;;;;;;;1.52;1.38;;;;;;;9.46;100.00;100011.38;5073437;28;20032;-34
2023/11/09 03:23:29;;;;;;;1.67;1.27;;;;;;;9.50;100.00;100017.13;5073638;28;20037;-34
2023/11/09 03:25:54;;;;;;;1.70;1.40;;;;;;;9.48;100.00;100011.97;5073670;28;20067;-34
2023/11/09 03:28:20;;;;;;;2.30;1.47;;;;;;;9.45;100.00;100007.06;5073035;28;20032;-34
2023/11/09 03:30:45;;;;;;;2.13;1.50;;;;;;;9.51;100.00;100011.47;5073027;28;20321;-34
2023/11/09 03:33:10;;;;;;;2.13;1.40;;;;;;;9.47;100.00;99999.53;5072707;28;20035;-34
2023/11/09 03:35:36;;;;;;;2.60;1.43;;;;;;;9.53;100.00;100006.66;5073549;28;20032;-34
2023/11/09 03:38:01;;;;;;;2.42;1.55;;;;;;;9.56;100.00;100013.44;5073376;28;20078;-34
2023/11/09 03:40:27;;;;;;;2.40;1.55;;;;;;;9.54;100.00;100008.28;5072945;28;20115;-34
2023/11/09 03:42:52;;;;;;;2.97;1.63;;;;;;;9.57;100.00;100006.19;5073483;28;20020;-34
2023/11/09 03:45:18;;;;;;;1.70;1.33;;;;;;;9.60;100.00;100011.88;5077161;28;20028;-34
2023/11/09 03:47:43;;;;;;;2.65;1.63;;;;;;;9.47;100.00;99987.94;5076896;28;20483;-34
2023/11/09 03:50:11;;;;;;;2.07;1.50;;;;;;;9.63;100.00;100011.41;5077269;28;20060;-34
2023/11/09 03:52:39;;;;;;;3.10;1.50;;;;;;;9.64;100.00;100014.91;5076228;28;20320;-34
2023/11/09 03:55:06;;;;;;;2.45;1.75;;;;;;;9.63;100.00;100013.28;5076794;28;20032;-34
2023/11/09 03:57:32;;;;;;;2.60;1.30;;;;;;;9.65;100.00;100009.28;5076911;28;20040;-34
2023/11/09 03:59:57;;;;;;;2.23;1.57;;;;;;;9.67;100.00;100009.03;5076795;28;20067;-34
2023/11/09 04:02:23;;;;;;;2.93;1.47;;;;;;;9.67;100.00;100014.44;5076693;28;20028;-34
2023/11/09 04:04:48;;;;;;;2.90;1.83;;;;;;;9.60;100.00;99995.69;5076062;28;20274;-39
2023/11/09 04:07:14;;;;;;;2.87;1.80;;;;;;;9.62;100.00;99996.28;5076386;28;20040;-34
2023/11/09 04:09:39;;;;;;;4.32;1.92;;;;;;;9.64;100.00;99999.53;5076372;28;20025;-34
2023/11/09 04:12:05;;;;;;;2.90;1.80;;;;;;;9.69;100.00;99999.63;5076264;28;20025;-34
2023/11/09 04:14:30;;;;;;;;;;;;;;;9.73;100.00;100002.66;5076610;28;20025;-34
2023/11/09 04:16:56;;;;;;;2.03;1.50;;;;;;;9.73;100.00;100013.47;5075128;28;20257;-34
2023/11/09 04:19:21;;;;;;;2.30;1.90;;;;;;;9.74;100.00;100015.09;5076083;28;20726;-34
2023/11/09 04:21:49;;;;;;;3.10;1.92;;;;;;;9.76;100.00;100007.53;5076090;28;20104;-34
2023/11/09 04:24:14;;;;;;;3.92;2.00;;;;;;;9.76;100.00;100010.25;5076769;28;20043;-34
2023/11/09 04:26:42;;;;;;;2.13;1.93;;;;;;;9.77;100.00;100006.50;5075984;28;20107;-34
2023/11/09 04:29:10;;;;;;;3.40;2.13;;;;;;;9.72;100.00;100014.53;5075830;28;20285;-34
2023/11/09 04:31:37;;;;;;;2.38;2.03;;;;;;;9.71;100.00;100002.91;5075661;28;20451;-34
2023/11/09 04:34:08;;;;;;;3.47;2.47;;;;;;;9.71;100.00;100005.63;5075817;28;20431;-34
2023/11/09 04:36:40;;;;;;;3.40;2.28;;;;;;;9.78;100.00;100014.34;5075707;28;20031;-34
2023/11/09 04:39:07;;;;;;;5.85;2.40;;;;;;;9.79;100.00;100017.88;5076270;28;20036;-34
2023/11/09 04:41:32;;;;;;;3.80;2.67;;;;;;;9.80;100.00;100022.19;5076490;28;20032;-34
2023/11/09 04:43:58;;;;;;;5.23;2.50;;;;;;;9.81;100.00;100029.25;5075412;28;20025;-36
2023/11/09 04:46:24;;;;;;;2.65;2.33;;;;;;;9.82;100.00;100030.06;5076220;28;20032;-36
2023/11/09 04:48:55;;;;;;;3.08;2.30;;;;;;;9.82;100.00;100025.50;5076119;28;20036;-34
2023/11/09 04:51:22;;;;;;;3.05;2.75;;;;;;;9.74;100.00;100015.09;5076079;28;20024;-34
2023/11/09 04:53:56;;;;;;;2.70;2.50;;;;;;;9.80;100.00;100033.00;5075327;28;20104;-34
2023/11/09 04:56:38;;;;;;;3.00;2.80;;;;;;;9.78;100.00;100030.56;5075907;28;20528;-34
2023/11/09 05:07:19;;;;;;;3.00;2.80;;;;;;;9.73;100.00;100037.75;5075771;28;20066;-34
2023/11/09 05:09:47;;;;;;;;;;;;;;;9.75;100.00;100032.91;5075264;28;20029;-34
2023/11/09 05:12:15;;;;;;;;;;;;;;;9.76;100.00;100039.94;5075600;28;19959;-34
2023/11/09 05:14:40;;;;;;;3.15;2.65;;;;;;;9.68;100.00;100033.09;5074724;28;19944;-34
2023/11/09 05:17:06;;;;;;;2.67;2.40;;;;;;;9.63;100.00;100037.59;5074919;28;20064;-34
2023/11/09 05:19:31;;;;;;;3.00;2.60;;;;;;;9.60;100.00;100044.28;5075492;28;20025;-34
2023/11/09 05:21:57;;;;;;;3.95;2.40;;;;;;;9.60;100.00;100038.06;5074629;28;20032;-34
2023/11/09 05:24:22;;;;;;;2.67;2.47;;;;;;;9.64;100.00;100055.41;5074798;28;20056;-34
2023/11/09 05:26:50;;;;;;;2.97;2.20;;;;;;;9.63;100.00;100061.88;5075622;28;20075;-34
2023/11/09 05:29:17;;;;;;;2.17;1.98;;;;;;;9.61;100.00;100061.28;5074401;28;20064;-34
2023/11/09 05:31:44;;;;;;;;;;;;;;;9.66;100.00;100059.53;5075759;28;20028;-34
2023/11/09 05:34:10;;;;;;;1.85;1.48;;;;;;;9.55;100.00;100065.78;5074627;28;20272;-34
2023/11/09 05:36:36;;;;;;;1.80;1.50;;;;;;;9.24;100.00;100024.78;5075179;28;20028;-34
2023/11/09 05:39:04;;;;;;;3.47;1.53;;;;;;;9.51;100.00;100059.22;5074620;28;20530;-34
2023/11/09 05:41:30;;;;;;;2.00;1.30;;;;;;;9.48;100.00;100062.44;5074803;28;20277;-34
2023/11/09 05:43:56;;;;;;;1.75;1.40;;;;;;;9.47;100.00;100061.63;5074449;28;20107;-34
2023/11/09 05:46:21;;;;;;;1.70;1.35;;;;;;;9.47;100.00;100056.22;5074985;28;20032;-34
2023/11/09 05:48:48;;;;;;;3.35;1.85;;;;;;;9.44;100.00;100053.19;5074567;28;20453;-33
2023/11/09 05:51:15;;;;;;;2.53;1.60;;;;;;;9.42;100.00;100058.81;5074882;28;20036;-34
2023/11/09 05:53:41;;;;;;;2.08;1.45;;;;;;;9.41;100.00;100062.56;5074262;28;20085;-34
2023/11/09 05:56:07;;;;;;;2.80;2.08;;;;;;;9.33;100.00;100054.88;5074718;28;20052;-34
2023/11/09 05:58:33;;;;;;;2.63;1.60;;;;;;;9.36;100.00;100058.97;5073900;28;20054;-34
2023/11/09 06:00:59;;;;;;;4.07;1.80;;;;;;;9.33;100.00;100057.56;5074778;28;20028;-34
2023/11/09 06:03:24;;;;;;;2.90;2.50;;;;;;;9.39;100.00;100080.88;5074057;28;20043;-34
2023/11/09 06:05:50;;;;;;;4.13;2.53;;;;;;;9.39;100.00;100077.38;5073339;28;20278;-34
2023/11/09 06:08:18;;;;;;;;;;;;;;;9.42;100.00;100085.81;5074388;28;20028;-34
2023/11/09 06:10:45;;;;;;;3.92;3.22;;;;;;;9.34;100.00;100082.69;5074224;28;19912;-34
2023/11/09 06:13:11;;;;;;;5.38;3.35;;;;;;;9.37;100.00;100092.97;5073886;28;20033;-34
2023/11/09 06:15:36;;;;;;;5.63;4.43;;;;;;;9.38;100.00;100094.63;5074750;28;20031;-34
2023/11/09 06:18:02;;;;;;;4.37;3.90;;;;;;;9.37;100.00;100092.97;5073529;28;20112;-34
2023/11/09 06:20:27;;;;;;;8.07;4.97;;;;;;;9.31;100.00;100089.34;5073525;28;20101;-34
2023/11/09 06:22:53;;;;;;;6.43;4.80;;;;;;;9.37;100.00;100093.81;5073744;28;20033;-34
2023/11/09 06:25:18;;;;;;;8.25;4.90;;;;;;;9.37;100.00;100101.91;5074276;28;20479;-34
2023/11/09 06:27:44;;;;;;;5.38;4.80;;;;;;;9.33;100.00;100092.66;5074264;28;20060;-34
2023/11/09 06:30:10;;;;;;;9.30;5.73;;;;;;;9.30;100.00;100090.44;5073762;28;20082;-34
2023/11/09 06:32:35;;;;;;;;;;;;;;;9.39;100.00;100112.44;5074019;28;20111;-34
2023/11/09 06:35:01;;;;;;;7.25;6.55;;;;;;;9.27;100.00;100104.38;5073445;28;19955;-34
2023/11/09 06:37:27;;;;;;;8.45;7.60;;;;;;;9.32;100.00;100107.22;5073126;28;20077;-34
2023/11/09 06:39:53;;;;;;;10.43;7.80;;;;;;;9.33;100.00;100103.44;5074120;28;20487;-34
2023/11/09 06:42:18;;;;;;;9.68;8.10;;;;;;;9.32;100.00;100109.91;5073539;28;20039;-34
2023/11/09 06:44:45;;;;;;;12.03;8.30;;;;;;;9.29;100.00;100110.38;5074034;28;20060;-34
2023/11/09 06:47:10;;;;;;;12.40;9.48;;;;;;;9.28;100.00;100119.53;5073761;28;20271;-34
2023/11/09 06:49:37;;;;;;;13.27;10.55;;;;;;;9.29;100.00;100130.09;5073382;28;20047;-34
2023/11/09 06:52:03;;;;;;;;;;;;;;;9.33;100.00;100130.44;5073972;28;20024;-34
2023/11/09 06:54:28;;;;;;;11.85;10.57;;;;;;;9.29;100.00;100131.97;5073348;28;19909;-34
2023/11/09 06:56:54;;;;;;;14.13;12.05;;;;;;;9.29;100.00;100134.66;5073617;28;20063;-34
2023/11/09 06:59:21;;;;;;;14.50;11.75;;;;;;;9.28;100.00;100122.22;5073057;28;20116;-34
2023/11/09 07:01:47;;;;;;;13.45;12.05;;;;;;;9.29;100.00;100131.97;5073126;28;20020;-34
2023/11/09 07:04:12;;;;;;;14.00;12.60;;;;;;;9.29;100.00;100134.66;5073286;28;20074;-34
2023/11/09 07:06:37;;;;;;;13.83;12.40;;;;;;;9.29;100.00;100129.25;5073615;28;20095;-34
2023/11/09 07:09:04;;;;;;;15.03;12.43;;;;;;;9.29;100.00;100130.09;5073074;28;20051;-34
2023/11/09 07:11:30;;;;;;;;;;;;;;;9.34;100.00;100132.06;5073963;28;20025;-34
2023/11/09 07:13:56;;;;;;;16.77;12.30;;;;;;;9.19;100.00;100129.88;5074024;28;20252;-34
2023/11/09 07:16:23;;;;;;;17.58;12.80;;;;;;;9.27;100.00;100145.69;5072912;28;20029;-34
2023/11/09 07:18:49;;;;;;;17.05;14.25;;;;;;;9.24;100.00;100154.25;5075345;28;20034;-36
2023/11/09 07:21:14;;;;;;;16.83;13.50;;;;;;;9.23;100.00;100157.22;5077501;28;20484;-37
2023/11/09 07:23:40;;;;;;;16.88;13.60;;;;;;;9.22;100.00;100158.25;5076859;28;20035;-34
2023/11/09 07:26:05;;;;;;;16.13;13.48;;;;;;;9.15;100.00;100147.59;5077186;28;20103;-34
2023/11/09 07:28:31;;;;;;;15.68;13.18;;;;;;;9.21;100.00;100153.91;5077831;28;20083;-34
2023/11/09 07:30:57;;;;;;;17.65;13.43;;;;;;;9.21;100.00;100160.13;5077301;28;20050;-34
2023/11/09 07:33:22;;;;;;;17.55;12.98;;;;;;;9.16;100.00;100159.19;5076595;28;20028;-34
2023/11/09 07:35:48;;;;;;;19.10;12.53;;;;;;;9.18;100.00;100167.91;5077384;28;20032;-34
2023/11/09 07:38:13;;;;;;;20.27;14.45;;;;;;;9.10;100.00;100154.75;5076712;28;20294;-34
2023/11/09 07:40:42;;;;;;;15.00;13.43;;;;;;;9.07;100.00;100152.53;5076764;28;20111;-34
2023/11/09 07:43:09;;;;;;;17.70;13.52;;;;;;;9.10;100.00;100162.84;5076602;28;20726;-34
2023/11/09 07:45:35;;;;;;;18.33;14.43;;;;;;;9.10;100.00;100163.69;5076386;28;20055;-34
2023/11/09 07:48:03;;;;;;;18.20;13.65;;;;;;;9.08;100.00;100173.03;5077400;28;20033;-34
2023/11/09 07:50:30;;;;;;;16.58;12.95;;;;;;;9.07;100.00;100163.31;5076939;28;20032;-34
2023/11/09 07:52:55;;;;;;;17.27;13.52;;;;;;;8.97;100.00;100159.34;5076809;28;20495;-34
2023/11/09 07:55:21;;;;;;;17.57;14.10;;;;;;;9.05;100.00;100165.44;5076561;28;20025;-34
2023/11/09 07:57:46;;;;;;;19.98;13.75;;;;;;;9.03;100.00;100173.78;5075941;28;20054;-34
2023/11/09 08:00:12;;;;;;;16.93;13.87;;;;;;;9.04;100.00;100167.31;5076733;28;20029;-34
2023/11/09 08:02:38;;;;;;;19.05;14.00;;;;;;;9.02;100.00;100162.16;5076358;28;20021;-34
2023/11/09 08:05:06;;;;;;;17.23;13.85;;;;;;;9.00;100.00;100166.97;5076063;28;20042;-34
2023/11/09 08:07:32;;;;;;;18.90;14.45;;;;;;;9.02;100.00;100162.16;5075942;28;20078;-34
2023/11/09 08:09:58;;;;;;;17.70;13.93;;;;;;;9.00;100.00;100153.50;5075919;28;20017;-34
2023/11/09 08:12:23;;;;;;;19.37;14.20;;;;;;;9.02;100.00;100164.84;5077125;28;20028;-34
2023/11/09 08:14:49;;;;;;;16.47;13.43;;;;;;;8.98;100.00;100166.41;5076671;28;20071;-34
2023/11/09 08:17:14;;;;;;;17.25;13.05;;;;;;;8.99;100.00;100172.63;5076635;28;20374;-34
2023/11/09 08:19:40;;;;;;;19.73;13.13;;;;;;;8.98;100.00;100177.19;5075860;28;20017;-34
2023/11/09 08:22:05;;;;;;;19.90;13.17;;;;;;;8.96;100.00;100186.56;5075770;28;20269;-34
2023/11/09 08:24:32;;;;;;;14.68;12.25;;;;;;;8.91;100.00;100189.97;5075997;28;20108;-34
2023/11/09 08:26:58;;;;;;;17.13;12.27;;;;;;;8.88;100.00;100185.06;5075998;28;20082;-34
2023/11/09 08:29:24;;;;;;;16.67;12.05;;;;;;;8.80;100.00;100180.00;5075386;28;20029;-34
2023/11/09 08:31:49;;;;;;;18.60;12.38;;;;;;;8.81;100.00;100180.84;5076463;28;20082;-33
2023/11/09 08:34:16;;;;;;;15.90;12.73;;;;;;;8.72;100.00;100165.00;5075869;28;20103;-34
2023/11/09 08:36:41;;;;;;;18.23;13.10;;;;;;;8.77;100.00;100183.16;5075752;28;20112;-34
2023/11/09 08:39:09;;;;;;;20.00;14.10;;;;;;;8.80;100.00;100187.28;5076573;28;20116;-34
2023/11/09 08:41:37;;;;;;;17.65;13.20;;;;;;;8.70;100.00;100177.09;5075716;28;20021;-34
2023/11/09 08:44:03;;;;;;;19.23;13.23;;;;;;;8.77;100.00;100194.78;5075343;28;20063;-34
2023/11/09 08:46:28;;;;;;;19.50;12.70;;;;;;;8.81;100.00;100191.63;5076495;28;20059;-34
2023/11/09 08:48:54;;;;;;;21.50;12.95;;;;;;;8.77;100.00;100185.88;5075843;28;20029;-33
2023/11/09 08:51:20;;;;;;;16.53;12.03;;;;;;;8.86;100.00;100199.81;5076117;28;20449;-34
2023/11/09 08:53:46;;;;;;;;;;;;;;;8.92;100.00;100197.00;5076438;28;20039;-34
2023/11/09 08:56:11;;;;;;;13.63;8.85;;;;;;;8.87;100.00;100202.28;5075172;28;19916;-34
2023/11/09 08:58:39;;;;;;;13.45;8.77;;;;;;;8.89;100.00;100200.19;5075670;28;20025;-34
2023/11/09 09:01:16;;;;;;;16.58;8.90;;;;;;;8.92;100.00;100190.78;5075652;28;20385;-34
2023/11/09 09:03:45;;;;;;;14.45;8.13;;;;;;;8.90;100.00;100176.72;5075856;28;20385;-34
2023/11/09 09:06:11;;;;;;;13.95;7.60;;;;;;;8.95;100.00;100187.63;5075812;28;20078;-34
2023/11/09 09:08:38;;;;;;;14.10;8.15;;;;;;;9.03;100.00;100188.09;5073979;28;20102;-34
2023/11/09 09:11:05;;;;;;;13.40;7.20;;;;;;;9.05;100.00;100192.41;5075977;28;20052;-34
2023/11/09 09:13:30;;;;;;;15.20;6.95;;;;;;;9.07;100.00;100190.28;5075046;28;20060;-34
2023/11/09 09:15:56;;;;;;;13.17;6.60;;;;;;;9.06;100.00;100185.97;5075360;28;20060;-34
2023/11/09 09:18:22;;;;;;;12.63;7.00;;;;;;;8.99;100.00;100183.41;5074930;28;20267;-34
2023/11/09 09:20:48;;;;;;;;;;;;;;;9.11;100.00;100186.06;5075632;28;20032;-34
2023/11/09 09:23:14;;;;;;;12.68;5.38;;;;;;;8.95;100.00;100177.66;5074915;28;19913;-34
2023/11/09 09:25:39;;;;;;;12.65;6.35;;;;;;;8.99;100.00;100173.44;5074936;28;20488;-34
2023/11/09 09:28:04;;;;;;;13.23;5.63;;;;;;;9.09;100.00;100174.72;5074836;28;20029;-33
2023/11/09 09:30:30;;;;;;;11.63;5.90;;;;;;;9.17;100.00;100168.94;5075040;28;20262;-34
2023/11/09 09:32:56;;;;;;;12.18;5.80;;;;;;;9.23;100.00;100170.69;5074664;28;20100;-34
2023/11/09 09:35:26;;;;;;;10.50;4.78;;;;;;;9.25;100.00;100179.34;5074889;28;20051;-34
2023/11/09 09:37:52;;;;;;;12.02;5.22;;;;;;;9.22;100.00;100163.63;5074583;28;20033;-34
2023/11/09 09:40:25;;;;;;;8.75;4.75;;;;;;;9.26;100.00;100171.00;5074796;28;20028;-34
2023/11/09 09:42:52;;;;;;;12.02;4.85;;;;;;;9.36;100.00;100175.81;5075021;28;20099;-34
2023/11/09 09:45:30;;;;;;;11.15;5.30;;;;;;;9.39;100.00;100172.63;5074455;28;20097;-34
2023/11/09 09:47:59;;;;;;;13.48;4.80;;;;;;;9.41;100.00;100158.91;5074421;28;20028;-34
2023/11/09 09:50:29;;;;;;;12.10;4.75;;;;;;;9.58;100.00;100178.69;5074402;28;20032;-34
2023/11/09 09:52:58;;;;;;;10.80;4.93;;;;;;;9.66;100.00;100172.06;5073115;28;20089;-34
2023/11/09 09:55:26;;;;;;;13.20;5.53;;;;;;;9.72;100.00;100171.13;5074294;28;20033;-34
2023/11/09 09:57:51;;;;;;;18.42;5.43;;;;;;;9.75;100.00;100176.00;5073934;28;20090;-34
2023/11/09 10:00:24;;;;;;;13.60;4.53;;;;;;;9.78;100.00;100164.75;5074194;28;20032;-34
2023/11/09 10:02:52;;;;;;;12.32;5.00;;;;;;;9.85;100.00;100180.78;5074396;28;20727;-34
2023/11/09 10:05:19;;;;;;;14.15;4.88;;;;;;;9.87;100.00;100179.50;5074100;28;20029;-34
2023/11/09 10:08:03;;;;;;;;;;;;;;;9.99;100.00;100188.34;5073226;28;20484;-34
2023/11/09 10:10:32;;;;;;;12.55;4.10;;;;;;;9.90;100.00;100194.38;5074879;28;20334;-34
2023/11/09 10:12:58;;;;;;;16.10;4.47;;;;;;;9.88;100.00;100199.22;5073906;28;20028;-34
2023/11/09 10:15:24;;;;;;;10.70;3.60;;;;;;;9.90;100.00;100194.38;5074201;28;20051;-34
2023/11/09 10:17:56;;;;;;;11.52;3.97;;;;;;;9.89;100.00;100201.66;5073491;28;20020;-34
2023/11/09 10:20:22;;;;;;;13.48;3.88;;;;;;;9.90;100.00;100197.88;5073621;28;20036;-34
2023/11/09 10:22:50;;;;;;;11.85;4.03;;;;;;;9.96;100.00;100196.94;5073855;28;20021;-34
2023/11/09 10:25:17;;;;;;;15.52;4.72;;;;;;;9.99;100.00;100198.31;5074082;28;20032;-34
2023/11/09 10:27:42;;;;;;;10.85;4.20;;;;;;;9.98;100.00;100199.41;5073687;28;20039;-34
2023/11/09 10:30:09;;;;;;;7.78;3.58;;;;;;;10.02;100.00;100197.84;5073687;28;20120;-34
2023/11/09 10:32:36;;;;;;;12.65;3.20;;;;;;;10.04;100.00;100196.53;5073684;28;20039;-34
2023/11/09 10:35:03;;;;;;;12.18;3.60;;;;;;;10.08;100.00;100196.88;5074286;28;20028;-34
2023/11/09 10:37:29;;;;;;;12.60;3.95;;;;;;;10.06;100.00;100193.59;5073251;28;20525;-34
2023/11/09 10:39:57;;;;;;;11.27;3.50;;;;;;;10.14;100.00;100190.50;5073586;28;20036;-34
2023/11/09 10:42:25;;;;;;;13.27;3.58;;;;;;;10.22;100.00;100194.69;5074476;28;20032;-34
2023/11/09 10:44:55;;;;;;;10.32;3.40;;;;;;;10.21;100.00;100188.47;5073510;28;20032;-34
2023/11/09 10:47:24;;;;;;;7.65;2.78;;;;;;;10.24;100.00;100185.28;5073818;28;20051;-34
2023/11/09 10:49:53;;;;;;;10.23;3.05;;;;;;;10.28;100.00;100185.63;5073690;28;20028;-34
2023/11/09 10:52:21;;;;;;;11.45;2.83;;;;;;;10.17;100.00;100160.28;5073869;28;20025;-34
2023/11/09 10:54:49;;;;;;;10.48;2.47;;;;;;;10.20;100.00;100164.38;5073130;28;20085;-34
2023/11/09 10:57:15;;;;;;;10.05;2.78;;;;;;;10.26;100.00;100183.19;5074021;28;20052;-34
2023/11/09 10:59:41;;;;;;;9.75;2.80;;;;;;;10.23;100.00;100177.41;5073997;28;20461;-34
2023/11/09 11:02:16;;;;;;;11.48;3.13;;;;;;;10.25;100.00;100175.31;5073758;28;20028;-34
2023/11/09 11:04:45;;;;;;;7.85;2.60;;;;;;;10.26;100.00;100172.38;5073779;28;20024;-34
2023/11/09 11:07:12;;;;;;;9.07;2.47;;;;;;;10.28;100.00;100181.03;5073301;28;20029;-34
2023/11/09 11:09:38;;;;;;;10.07;2.88;;;;;;;10.34;100.00;100176.53;5073824;28;20063;-34
2023/11/09 11:12:07;;;;;;;10.13;2.35;;;;;;;10.40;100.00;100163.94;5074164;28;20483;-34
2023/11/09 11:14:36;;;;;;;10.30;2.40;;;;;;;10.52;100.00;100164.66;5073216;28;20031;-34
2023/11/09 11:17:11;;;;;;;9.07;2.90;;;;;;;10.49;100.00;100171.41;5074025;28;20032;-34
2023/11/09 11:20:40;;;;;;;11.65;3.33;;;;;;;10.54;100.00;100163.38;5074030;28;20185;-34
2023/11/09 11:23:06;;;;;;;;;;;;;;;10.62;100.00;100158.59;5031653;28;20047;-34
2023/11/09 11:25:38;;;;;;;9.30;2.85;;;;;;;10.54;100.00;100163.38;5031128;28;20383;-34
2023/11/09 11:28:06;;;;;;;8.65;2.65;;;;;;;10.44;100.00;100130.78;5053871;28;20052;-34
2023/11/09 11:30:35;;;;;;;10.15;2.63;;;;;;;10.61;100.00;100152.38;5073484;28;20028;-34